createdAt,value
2022-10-04T00:02:20.690Z,8.41
2022-10-04T00:04:57.702Z,8.28
2022-10-04T00:07:28.551Z,8.20
2022-10-04T00:09:59.643Z,8.20
2022-10-04T00:12:30.274Z,8.27
2022-10-04T00:15:00.858Z,8.27
2022-10-04T00:17:31.651Z,8.27
2022-10-04T00:20:00.989Z,8.21
2022-10-04T00:22:29.677Z,8.11
2022-10-04T00:25:23.964Z,8.03
2022-10-04T00:28:32.232Z,7.98
2022-10-04T00:31:24.541Z,7.96
2022-10-04T00:33:59.682Z,8.11
2022-10-04T00:36:41.686Z,8.03
2022-10-04T00:39:50.155Z,8.06
2022-10-04T00:42:37.454Z,7.99
2022-10-04T00:45:12.425Z,8.08
2022-10-04T00:47:58.995Z,7.95
2022-10-04T00:50:30.945Z,7.98
2022-10-04T00:53:05.536Z,7.91
2022-10-04T00:55:39.856Z,7.87
2022-10-04T00:58:17.620Z,7.86
2022-10-04T01:00:46.365Z,7.80
2022-10-04T01:03:20.078Z,7.75
2022-10-04T01:05:51.582Z,7.86
2022-10-04T01:08:28.217Z,7.96
2022-10-04T01:10:59.616Z,7.83
2022-10-04T01:13:32.128Z,7.76
2022-10-04T01:16:07.294Z,7.84
2022-10-04T01:18:36.880Z,7.82
2022-10-04T01:21:07.986Z,7.86
2022-10-04T01:23:42.684Z,7.98
2022-10-04T01:26:44.171Z,8.05
2022-10-04T01:29:15.922Z,8.12
2022-10-04T01:31:46.455Z,8.08
2022-10-04T01:34:16.740Z,7.96
2022-10-04T01:36:47.190Z,8.01
2022-10-04T01:39:17.761Z,8.20
2022-10-04T01:41:51.062Z,8.05
2022-10-04T01:44:29.097Z,8.16
2022-10-04T01:46:59.402Z,8.11
2022-10-04T01:49:32.391Z,8.18
2022-10-04T01:52:05.530Z,8.21
2022-10-04T01:54:38.823Z,8.36
2022-10-04T01:57:13.642Z,8.30
2022-10-04T01:59:49.717Z,8.20
2022-10-04T02:02:24.907Z,7.98
2022-10-04T02:04:57.156Z,8.15
2022-10-04T02:07:28.222Z,8.01
2022-10-04T02:10:00.967Z,8.04
2022-10-04T02:12:31.695Z,8.11
2022-10-04T02:15:02.373Z,8.14
2022-10-04T02:17:32.061Z,8.06
2022-10-04T02:20:01.377Z,8.05
2022-10-04T02:22:29.545Z,8.05
2022-10-04T02:24:59.307Z,7.98
2022-10-04T02:27:29.967Z,7.96
2022-10-04T02:30:02.365Z,7.98
2022-10-04T02:32:50.244Z,8.03
2022-10-04T02:35:19.815Z,8.05
2022-10-04T02:37:50.326Z,8.04
2022-10-04T02:40:23.059Z,8.05
2022-10-04T02:42:59.692Z,7.99
2022-10-04T02:45:34.261Z,8.06
2022-10-04T02:48:07.648Z,7.96
2022-10-04T02:50:40.952Z,7.95
2022-10-04T02:53:17.190Z,7.94
2022-10-04T02:55:48.250Z,8.01
2022-10-04T02:58:19.219Z,8.07
2022-10-04T03:00:49.399Z,7.86
2022-10-04T03:03:23.456Z,7.86
2022-10-04T03:06:00.537Z,7.95
2022-10-04T03:08:30.228Z,8.09
2022-10-04T03:11:00.650Z,8.10
2022-10-04T03:13:28.698Z,8.03
2022-10-04T03:15:56.523Z,7.79
2022-10-04T03:18:25.030Z,7.78
2022-10-04T03:20:52.753Z,7.95
2022-10-04T03:23:21.962Z,7.87
2022-10-04T03:25:59.033Z,7.89
2022-10-04T03:28:28.728Z,7.72
2022-10-04T03:30:58.145Z,7.73
2022-10-04T03:33:28.817Z,7.73
2022-10-04T03:35:58.728Z,7.73
2022-10-04T03:38:27.143Z,7.67
2022-10-04T03:40:58.282Z,7.80
2022-10-04T03:43:30.358Z,7.66
2022-10-04T03:45:59.539Z,7.91
2022-10-04T03:48:33.241Z,7.72
2022-10-04T03:51:03.972Z,7.88
2022-10-04T03:53:35.335Z,7.91
2022-10-04T03:56:09.374Z,7.83
2022-10-04T03:58:38.319Z,7.79
2022-10-04T04:01:38.827Z,7.82
2022-10-04T04:04:18.169Z,7.97
2022-10-04T04:06:57.440Z,8.08
2022-10-04T04:09:34.077Z,7.99
2022-10-04T04:12:05.128Z,8.01
2022-10-04T04:14:34.244Z,7.97
2022-10-04T04:17:31.079Z,7.92
2022-10-04T04:20:06.184Z,7.97
2022-10-04T04:22:36.330Z,7.97
2022-10-04T04:25:08.529Z,8.06
2022-10-04T04:27:39.875Z,8.02
2022-10-04T04:30:20.001Z,7.97
2022-10-04T04:32:52.598Z,7.98
2022-10-04T04:35:25.654Z,7.95
2022-10-04T04:38:15.165Z,8.02
2022-10-04T04:40:43.541Z,8.17
2022-10-04T04:43:15.589Z,8.02
2022-10-04T04:45:45.505Z,8.03
2022-10-04T04:48:17.379Z,8.04
2022-10-04T04:50:50.969Z,7.81
2022-10-04T04:53:22.165Z,7.89
2022-10-04T04:56:11.081Z,7.79
2022-10-04T04:58:44.132Z,7.99
2022-10-04T05:01:23.699Z,7.87
2022-10-04T05:04:02.098Z,7.71
2022-10-04T05:06:31.426Z,7.63
2022-10-04T05:08:59.505Z,7.78
2022-10-04T05:11:30.969Z,7.87
2022-10-04T05:14:04.841Z,7.73
2022-10-04T05:16:38.729Z,7.91
2022-10-04T05:19:09.803Z,7.76
2022-10-04T05:21:42.676Z,7.79
2022-10-04T05:24:14.026Z,7.72
2022-10-04T05:26:43.506Z,7.87
2022-10-04T05:29:18.281Z,7.80
2022-10-04T05:31:56.233Z,7.75
2022-10-04T05:34:25.508Z,7.78
2022-10-04T05:37:16.831Z,7.79
2022-10-04T05:39:48.553Z,7.62
2022-10-04T05:42:23.277Z,7.64
2022-10-04T05:44:52.993Z,7.74
2022-10-04T05:47:24.131Z,7.61
2022-10-04T05:49:55.863Z,7.63
2022-10-04T05:52:30.441Z,7.60
2022-10-04T05:55:22.206Z,7.59
2022-10-04T05:58:06.421Z,7.88
2022-10-04T06:00:44.969Z,8.03
2022-10-04T06:03:35.947Z,8.18
2022-10-04T06:06:12.424Z,8.05
2022-10-04T06:08:48.413Z,8.11
2022-10-04T06:11:25.628Z,8.34
2022-10-04T06:14:18.714Z,8.30
2022-10-04T06:17:07.282Z,8.36
2022-10-04T06:19:55.722Z,8.49
2022-10-04T06:22:26.632Z,8.40
2022-10-04T06:25:01.048Z,8.34
2022-10-04T06:27:35.972Z,8.41
2022-10-04T06:30:07.088Z,8.43
2022-10-04T06:33:14.521Z,8.50
2022-10-04T06:36:11.713Z,8.61
2022-10-04T06:38:53.352Z,8.60
2022-10-04T06:41:45.456Z,8.67
2022-10-04T06:44:52.811Z,8.81
2022-10-04T06:47:38.717Z,8.73
2022-10-04T06:50:19.705Z,8.62
2022-10-04T06:53:11.121Z,8.84
2022-10-04T06:56:05.705Z,8.78
2022-10-04T06:59:06.836Z,8.87
2022-10-04T07:01:36.465Z,8.98
2022-10-04T07:04:15.764Z,8.76
2022-10-04T07:06:52.818Z,8.85
2022-10-04T07:09:26.593Z,8.97
2022-10-04T07:12:01.080Z,9.01
2022-10-04T07:14:33.053Z,9.10
2022-10-04T07:17:05.308Z,9.21
2022-10-04T07:19:37.724Z,9.33
2022-10-04T07:22:17.569Z,9.44
2022-10-04T07:25:03.894Z,9.90
2022-10-04T07:30:20.347Z,10.05
2022-10-04T07:32:58.244Z,10.26
2022-10-04T07:35:33.805Z,10.25
2022-10-04T07:38:11.416Z,10.43
2022-10-04T07:40:44.294Z,11.17
2022-10-04T07:43:15.358Z,11.62
2022-10-04T07:45:43.538Z,12.55
2022-10-04T07:48:16.024Z,12.97
2022-10-04T07:50:52.720Z,13.85
2022-10-04T07:53:27.558Z,13.87
2022-10-04T07:56:01.582Z,14.17
2022-10-04T07:58:43.380Z,13.10
2022-10-04T08:01:23.855Z,12.50
2022-10-04T08:04:06.454Z,12.71
2022-10-04T08:06:38.998Z,13.37
2022-10-04T08:09:29.743Z,13.23
2022-10-04T08:12:08.239Z,13.28
2022-10-04T08:14:54.451Z,13.64
2022-10-04T08:17:41.917Z,13.17
2022-10-04T08:20:35.378Z,13.27
2022-10-04T08:23:17.956Z,13.93
2022-10-04T08:26:05.572Z,14.32
2022-10-04T08:29:02.752Z,14.02
2022-10-04T08:31:40.690Z,14.09
2022-10-04T08:34:22.884Z,13.84
2022-10-04T08:37:04.420Z,14.24
2022-10-04T08:39:53.642Z,13.73
2022-10-04T08:42:46.143Z,13.76
2022-10-04T08:45:34.749Z,13.90
2022-10-04T08:48:33.177Z,13.65
2022-10-04T08:51:48.438Z,13.91
2022-10-04T08:54:35.589Z,13.83
2022-10-04T08:57:19.116Z,13.67
2022-10-04T09:00:05.683Z,12.95
2022-10-04T09:03:26.650Z,12.88
2022-10-04T09:06:08.731Z,13.32
2022-10-04T09:09:13.118Z,13.58
2022-10-04T09:11:58.447Z,13.20
2022-10-04T09:14:53.523Z,13.57
2022-10-04T09:17:24.016Z,13.79
2022-10-04T09:20:13.978Z,14.07
2022-10-04T09:23:06.145Z,13.67
2022-10-04T09:25:56.797Z,14.32
2022-10-04T09:29:04.605Z,14.52
2022-10-04T09:32:11.138Z,14.88
2022-10-04T09:35:03.852Z,14.86
2022-10-04T09:37:44.617Z,14.65
2022-10-04T09:40:48.459Z,14.80
2022-10-04T09:43:45.826Z,15.15
2022-10-04T09:46:32.078Z,15.11
2022-10-04T09:49:13.530Z,15.45
2022-10-04T09:52:02.736Z,15.55
2022-10-04T09:55:04.943Z,15.29
2022-10-04T09:57:46.815Z,15.66
2022-10-04T10:00:25.345Z,15.84
2022-10-04T10:03:23.364Z,15.59
2022-10-04T10:06:25.561Z,15.85
2022-10-04T10:09:07.100Z,15.81
2022-10-04T10:12:01.716Z,15.39
2022-10-04T10:14:54.759Z,14.58
2022-10-04T10:17:36.506Z,14.85
2022-10-04T10:20:44.740Z,14.37
2022-10-04T10:23:46.346Z,14.72
2022-10-04T10:26:42.767Z,14.66
2022-10-04T10:29:32.056Z,14.86
2022-10-04T10:32:16.501Z,14.78
2022-10-04T10:35:17.261Z,14.92
2022-10-04T10:38:04.303Z,14.93
2022-10-04T10:40:50.721Z,14.85
2022-10-04T10:43:33.423Z,14.82
2022-10-04T10:46:15.423Z,14.85
2022-10-04T10:49:02.079Z,14.84
2022-10-04T10:51:57.094Z,14.95
2022-10-04T10:54:51.847Z,15.18
2022-10-04T10:57:44.475Z,15.41
2022-10-04T11:00:21.020Z,15.72
2022-10-04T11:03:32.362Z,15.78
2022-10-04T11:06:39.174Z,15.98
2022-10-04T11:09:32.660Z,16.19
2022-10-04T11:12:29.987Z,15.86
2022-10-04T11:15:38.349Z,16.24
2022-10-04T11:18:30.443Z,16.45
2022-10-04T11:21:25.876Z,16.63
2022-10-04T11:24:21.249Z,16.70
2022-10-04T11:27:17.909Z,16.70
2022-10-04T11:30:05.248Z,16.15
2022-10-04T11:33:17.307Z,16.17
2022-10-04T11:36:08.050Z,16.19
2022-10-04T11:39:17.773Z,16.38
2022-10-04T11:41:58.128Z,16.60
2022-10-04T11:44:46.227Z,16.29
2022-10-04T11:47:41.729Z,16.60
2022-10-04T11:50:30.602Z,16.64
2022-10-04T11:53:29.377Z,16.71
2022-10-04T11:56:17.265Z,16.52
2022-10-04T11:58:58.221Z,16.80
2022-10-04T12:01:46.805Z,16.60
2022-10-04T12:05:04.450Z,16.71
2022-10-04T12:07:46.145Z,16.68
2022-10-04T12:10:24.388Z,16.63
2022-10-04T12:13:37.941Z,16.48
2022-10-04T12:16:31.686Z,16.32
2022-10-04T12:19:32.420Z,16.62
2022-10-04T12:22:16.571Z,16.89
2022-10-04T12:24:59.587Z,16.82
2022-10-04T12:28:11.378Z,16.96
2022-10-04T12:30:57.676Z,17.11
2022-10-04T12:33:36.228Z,17.38
2022-10-04T12:36:20.628Z,17.24
2022-10-04T12:39:04.294Z,17.46
2022-10-04T12:41:44.817Z,17.33
2022-10-04T12:44:28.215Z,17.49
2022-10-04T12:47:26.187Z,17.62
2022-10-04T12:50:04.838Z,17.73
2022-10-04T12:52:44.652Z,17.73
2022-10-04T12:55:27.072Z,17.73
2022-10-04T12:58:05.504Z,17.72
2022-10-04T13:00:37.985Z,17.73
2022-10-04T13:03:26.509Z,17.72
2022-10-04T13:06:07.299Z,17.79
2022-10-04T13:08:53.994Z,17.80
2022-10-04T13:11:42.640Z,17.89
2022-10-04T13:14:47.267Z,17.82
2022-10-04T13:17:35.428Z,18.01
2022-10-04T13:20:38.314Z,17.99
2022-10-04T13:23:18.460Z,17.95
2022-10-04T13:26:04.523Z,18.03
2022-10-04T13:28:39.477Z,18.12
2022-10-04T13:31:15.998Z,18.23
2022-10-04T13:33:51.478Z,18.29
2022-10-04T13:36:25.189Z,18.31
2022-10-04T13:39:16.092Z,18.38
2022-10-04T13:42:01.419Z,18.45
2022-10-04T13:44:54.966Z,17.93
2022-10-04T13:47:58.188Z,18.01
2022-10-04T13:50:39.139Z,18.18
2022-10-04T13:53:43.154Z,18.28
2022-10-04T13:56:40.429Z,18.33
2022-10-04T13:59:19.125Z,18.17
2022-10-04T14:02:22.386Z,18.14
2022-10-04T14:05:27.024Z,18.26
2022-10-04T14:08:38.667Z,18.36
2022-10-04T14:11:28.036Z,18.32
2022-10-04T14:14:24.016Z,18.41
2022-10-04T14:17:16.373Z,18.41
2022-10-04T14:20:31.149Z,18.31
2022-10-04T14:23:38.409Z,18.34
2022-10-04T14:26:32.575Z,18.29
2022-10-04T14:29:23.395Z,18.28
2022-10-04T14:32:20.452Z,18.19
2022-10-04T14:35:03.046Z,18.10
2022-10-04T14:38:09.674Z,18.01
2022-10-04T14:40:58.841Z,18.10
2022-10-04T14:44:02.058Z,18.19
2022-10-04T14:46:45.095Z,18.17
2022-10-04T14:49:27.825Z,18.07
2022-10-04T14:52:21.467Z,18.10
2022-10-04T14:54:54.221Z,18.14
2022-10-04T14:57:46.445Z,17.81
2022-10-04T15:00:21.949Z,17.81
2022-10-04T15:03:14.314Z,17.66
2022-10-04T15:05:46.562Z,17.75
2022-10-04T15:08:44.344Z,17.70
2022-10-04T15:11:15.591Z,17.59
2022-10-04T15:13:55.416Z,17.63
2022-10-04T15:16:36.760Z,17.71
2022-10-04T15:19:12.617Z,17.70
2022-10-04T15:21:46.650Z,17.78
2022-10-04T15:24:27.981Z,17.73
2022-10-04T15:27:32.565Z,17.74
2022-10-04T15:30:14.460Z,17.73
2022-10-04T15:32:51.095Z,17.66
2022-10-04T15:35:31.149Z,17.54
2022-10-04T15:38:02.467Z,17.43
2022-10-04T15:40:38.591Z,17.45
2022-10-04T15:43:24.221Z,17.45
2022-10-04T15:46:37.112Z,17.45
2022-10-04T15:49:39.890Z,17.32
2022-10-04T15:52:21.872Z,17.27
2022-10-04T15:55:18.116Z,17.19
2022-10-04T15:58:09.825Z,17.14
2022-10-04T16:00:52.721Z,17.08
2022-10-04T16:03:30.934Z,17.02
2022-10-04T16:06:03.689Z,17.02
2022-10-04T16:08:52.419Z,16.97
2022-10-04T16:12:05.101Z,16.94
2022-10-04T16:14:53.431Z,16.86
2022-10-04T16:17:44.057Z,16.77
2022-10-04T16:20:28.709Z,16.79
2022-10-04T16:23:26.335Z,16.67
2022-10-04T16:25:56.624Z,16.55
2022-10-04T16:29:04.545Z,16.44
2022-10-04T16:31:44.932Z,16.30
2022-10-04T16:34:30.261Z,16.13
2022-10-04T16:37:00.329Z,16.06
2022-10-04T16:39:53.954Z,15.96
2022-10-04T16:42:28.974Z,15.86
2022-10-04T16:45:02.595Z,15.78
2022-10-04T16:47:34.398Z,15.71
2022-10-04T16:50:04.850Z,15.69
2022-10-04T16:52:50.847Z,15.65
2022-10-04T16:55:46.806Z,15.56
2022-10-04T16:58:44.988Z,15.45
2022-10-04T17:01:40.307Z,15.40
2022-10-04T17:04:30.574Z,15.28
2022-10-04T17:07:00.273Z,15.24
2022-10-04T17:09:31.565Z,15.19
2022-10-04T17:12:17.836Z,15.16
2022-10-04T17:14:58.568Z,15.09
2022-10-04T17:17:41.153Z,14.98
2022-10-04T17:20:17.775Z,14.94
2022-10-04T17:22:59.018Z,14.96
2022-10-04T17:25:36.768Z,14.88
2022-10-04T17:28:26.134Z,14.84
2022-10-04T17:31:02.951Z,14.82
2022-10-04T17:33:45.686Z,14.73
2022-10-04T17:36:39.358Z,14.73
2022-10-04T17:39:26.569Z,14.77
2022-10-04T17:42:15.062Z,14.66
2022-10-04T17:45:05.416Z,14.61
2022-10-04T17:47:53.453Z,14.57
2022-10-04T17:50:45.081Z,14.51
2022-10-04T17:53:40.688Z,14.43
2022-10-04T17:59:31.339Z,14.21
2022-10-04T18:02:10.140Z,14.19
2022-10-04T18:04:48.819Z,14.19
2022-10-04T18:07:21.537Z,14.19
2022-10-04T18:09:52.642Z,14.16
2022-10-04T18:12:30.031Z,14.14
2022-10-04T18:15:07.456Z,14.11
2022-10-04T18:17:41.159Z,14.07
2022-10-04T18:20:27.687Z,14.04
2022-10-04T18:23:01.697Z,14.02
2022-10-04T18:25:31.216Z,14.02
2022-10-04T18:28:06.919Z,14.02
2022-10-04T18:30:35.737Z,13.98
2022-10-04T18:33:05.165Z,13.93
2022-10-04T18:35:35.159Z,13.89
2022-10-04T18:38:23.475Z,13.80
2022-10-04T18:40:56.993Z,13.73
2022-10-04T18:43:27.538Z,13.65
2022-10-04T18:46:04.337Z,13.57
2022-10-04T18:48:51.936Z,13.52
2022-10-04T18:51:29.146Z,13.49
2022-10-04T18:54:10.578Z,13.44
2022-10-04T18:56:48.292Z,13.45
2022-10-04T18:59:42.762Z,13.44
2022-10-04T19:02:18.533Z,13.48
2022-10-04T19:04:50.508Z,13.43
2022-10-04T19:07:24.932Z,13.43
2022-10-04T19:10:03.488Z,13.41
2022-10-04T19:12:37.420Z,13.41
2022-10-04T19:15:18.670Z,13.40
2022-10-04T19:17:54.865Z,13.36
2022-10-04T19:20:29.797Z,13.31
2022-10-04T19:23:08.672Z,13.28
2022-10-04T19:25:39.372Z,13.31
2022-10-04T19:28:11.875Z,13.26
2022-10-04T19:30:59.982Z,13.20
2022-10-04T19:33:37.463Z,13.10
2022-10-04T19:36:22.143Z,13.01
2022-10-04T19:39:06.994Z,12.92
2022-10-04T19:41:48.860Z,12.89
2022-10-04T19:44:36.125Z,12.81
2022-10-04T19:47:10.254Z,12.74
2022-10-04T19:49:46.676Z,12.66
2022-10-04T19:52:23.059Z,12.66
2022-10-04T19:54:58.412Z,12.66
2022-10-04T19:57:35.927Z,12.70
2022-10-04T20:00:04.863Z,12.61
2022-10-04T20:02:32.518Z,12.59
2022-10-04T20:05:00.598Z,12.53
2022-10-04T20:07:29.211Z,12.51
2022-10-04T20:10:22.209Z,12.48
2022-10-04T20:13:25.163Z,12.41
2022-10-04T20:15:55.614Z,12.35
2022-10-04T20:19:09.728Z,12.32
2022-10-04T20:21:37.392Z,12.27
2022-10-04T20:24:05.228Z,12.27
2022-10-04T20:27:06.037Z,12.15
2022-10-04T20:30:05.685Z,12.14
2022-10-04T20:32:59.510Z,12.11
2022-10-04T20:36:04.582Z,12.00
2022-10-04T20:39:06.240Z,11.99
2022-10-04T20:42:16.997Z,12.02
2022-10-04T20:44:54.111Z,11.92
2022-10-04T20:47:42.253Z,12.00
2022-10-04T20:50:40.657Z,12.05
2022-10-04T20:53:17.394Z,11.97
2022-10-04T20:55:46.022Z,12.00
2022-10-04T20:58:31.471Z,11.82
2022-10-04T21:01:02.707Z,11.77
2022-10-04T21:03:31.056Z,11.77
2022-10-04T21:06:05.298Z,11.68
2022-10-04T21:08:33.499Z,11.85
2022-10-04T21:11:20.191Z,11.92
2022-10-04T21:14:00.518Z,11.78
2022-10-04T21:16:42.925Z,11.79
2022-10-04T21:19:51.264Z,11.70
2022-10-04T21:22:39.500Z,11.66
2022-10-04T21:25:33.189Z,11.61
2022-10-04T21:28:29.297Z,11.56
2022-10-04T21:30:58.385Z,11.58
2022-10-04T21:33:25.959Z,11.50
2022-10-04T21:35:53.817Z,11.45
2022-10-04T21:38:21.809Z,11.47
2022-10-04T21:40:49.459Z,11.40
2022-10-04T21:43:17.113Z,11.42
2022-10-04T21:45:44.834Z,11.41
2022-10-04T21:48:14.497Z,11.35
2022-10-04T21:50:43.459Z,11.24
2022-10-04T21:53:11.461Z,11.31
2022-10-04T21:55:39.214Z,11.31
2022-10-04T21:58:07.498Z,11.27
2022-10-04T22:00:35.279Z,11.27
2022-10-04T22:03:03.114Z,11.36
2022-10-04T22:05:32.833Z,11.26
2022-10-04T22:08:00.874Z,11.21
2022-10-04T22:10:28.495Z,11.26
2022-10-04T22:12:57.203Z,11.22
2022-10-04T22:15:30.259Z,11.16
2022-10-04T22:17:59.042Z,11.09
2022-10-04T22:20:27.021Z,11.11
2022-10-04T22:22:57.571Z,11.07
2022-10-04T22:25:26.720Z,10.98
2022-10-04T22:28:15.473Z,11.00
2022-10-04T22:30:46.160Z,10.96
2022-10-04T22:33:36.234Z,10.98
2022-10-04T22:36:13.791Z,10.92
2022-10-04T22:38:45.702Z,10.91
2022-10-04T22:41:15.317Z,10.96
2022-10-04T22:43:43.099Z,10.89
2022-10-04T22:46:14.613Z,10.81
2022-10-04T22:48:42.770Z,10.81
2022-10-04T22:51:11.938Z,10.98
2022-10-04T22:53:43.962Z,11.02
2022-10-04T22:56:13.853Z,10.84
2022-10-04T22:58:42.588Z,10.78
2022-10-04T23:01:13.845Z,10.78
2022-10-04T23:03:41.530Z,10.81
2022-10-04T23:06:14.034Z,10.76
2022-10-04T23:08:44.025Z,10.77
2022-10-04T23:11:12.324Z,10.71
2022-10-04T23:13:39.916Z,10.70
2022-10-04T23:16:22.989Z,10.75
2022-10-04T23:18:51.054Z,10.56
2022-10-04T23:21:23.555Z,10.45
2022-10-04T23:23:53.861Z,10.32
2022-10-04T23:26:24.493Z,10.23
2022-10-04T23:28:52.642Z,10.27
2022-10-04T23:31:23.996Z,10.23
2022-10-04T23:33:52.845Z,10.22
2022-10-04T23:36:20.917Z,10.27
2022-10-04T23:38:50.737Z,10.30
2022-10-04T23:41:21.016Z,10.29
2022-10-04T23:43:50.085Z,10.23
2022-10-04T23:46:20.436Z,10.22
2022-10-04T23:48:49.421Z,10.19
2022-10-04T23:51:20.079Z,10.16
2022-10-04T23:53:50.571Z,10.15
2022-10-04T23:56:22.575Z,10.14
2022-10-04T23:58:52.157Z,10.19
